Weather reports worldwide

Advertisment
Aonach Mor, United Kingdom (3041): temperature & dewpoint: 09.01.2021 18:00:00 - 15.01.2021 18:00:00 (GMT)Aonach Mor, United Kingdom (3041): wind speed & gusts: 09.01.2021 18:00:00 - 15.01.2021 18:00:00 (GMT)Aonach Mor, United Kingdom (3041): wind direction: 09.01.2021 18:00:00 - 15.01.2021 18:00:00 (GMT)
Date & Time tt [°C] td [°C] ff [km/h] ff [kn] fx [km/h] fx [kn] dd
15.01.2021 18:00:00 -4,3 -5,2 57 31 81 44 S
15.01.2021 17:00:00 -4,3 -4,9 52 28 70 38 S
15.01.2021 16:00:00 -4,3 -4,8 54 29 68 37 S
15.01.2021 15:00:00 -4,4 -5,0 34 18 54 29 SSW
15.01.2021 14:00:00 -4,3 -6,1 39 21 52 28 S
15.01.2021 13:00:00 -4,2 -5,4 13 7 - - SSW
15.01.2021 12:00:00 -3,8 -4,6 29 16 - - S
15.01.2021 11:00:00 -3,3 -3,3 15 8 - - S
15.01.2021 10:00:00 -3,2 -3,2 21 11 - - S
15.01.2021 09:00:00 -3,4 -3,7 18 10 - - S
15.01.2021 08:00:00 -3,2 -3,2 16 9 - - SSW
15.01.2021 07:00:00 -3,0 -3,0 16 9 - - SSW
15.01.2021 06:00:00 -2,7 -2,7 13 7 - - SSW
15.01.2021 05:00:00 -2,6 -2,6 15 8 - - WSW
15.01.2021 04:00:00 -2,4 -2,4 16 9 - - SW
15.01.2021 03:00:00 -2,3 -2,3 15 8 - - WSW
15.01.2021 02:00:00 -1,9 -1,9 11 6 - - W
15.01.2021 01:00:00 -2,0 -2,0 11 6 - - WNW
15.01.2021 00:00:00 -1,8 -1,8 9 5 - - W
14.01.2021 23:00:00 -1,6 -1,6 9 5 - - WSW
14.01.2021 22:00:00 -1,6 -1,6 11 6 - - WSW
14.01.2021 21:00:00 -1,6 -1,6 13 7 - - WSW
14.01.2021 20:00:00 -1,4 -1,4 11 6 - - W
14.01.2021 19:00:00 -1,3 -1,3 13 7 - - WSW
14.01.2021 18:00:00 -1,4 -1,4 11 6 - - W
14.01.2021 17:00:00 -1,5 -1,5 9 5 - - W
14.01.2021 16:00:00 -1,5 -1,5 9 5 - - WNW
14.01.2021 15:00:00 -1,5 -1,7 8 4 - - SW
14.01.2021 14:00:00 -1,4 -1,6 5 3 - - W
14.01.2021 13:00:00 -1,4 -1,5 5 3 - - SSW
14.01.2021 12:00:00 -1,6 -1,6 11 6 - - S
14.01.2021 11:00:00 -1,8 -1,9 13 7 - - SSE
14.01.2021 10:00:00 -2,0 -2,1 15 8 - - S
14.01.2021 09:00:00 -1,9 -2,0 13 7 - - S
14.01.2021 08:00:00 -1,4 -1,4 13 7 - - S
14.01.2021 07:00:00 -1,0 -1,0 9 5 - - S
14.01.2021 06:00:00 -1,7 -1,7 22 12 - - SSE
14.01.2021 05:00:00 -1,6 -1,6 21 11 - - SSE
14.01.2021 04:00:00 -1,5 -1,5 16 9 - - SSE
14.01.2021 03:00:00 -1,6 -1,6 22 12 - - SSE
14.01.2021 02:00:00 -1,1 -1,1 22 12 - - SSE
14.01.2021 01:00:00 -0,7 -0,7 26 14 - - SSE
14.01.2021 00:00:00 0,1 0,1 16 9 - - S
13.01.2021 23:00:00 0,0 0,0 16 9 - - SSE
13.01.2021 22:00:00 -0,5 -0,5 29 16 - - SSE
13.01.2021 21:00:00 0,2 0,2 29 16 - - SSE
13.01.2021 20:00:00 -0,1 -0,1 31 17 46 25 SSE
13.01.2021 19:00:00 -0,6 -0,6 37 20 48 26 SE
13.01.2021 18:00:00 -0,5 -0,5 39 21 48 26 SE
13.01.2021 17:00:00 -0,4 -0,4 34 18 - - SE
13.01.2021 16:00:00 0,1 0,1 34 18 - - SE
13.01.2021 15:00:00 1,1 1,1 26 14 - - SSE
13.01.2021 14:00:00 0,9 0,9 24 13 - - SSE
13.01.2021 13:00:00 1,0 1,0 15 8 - - SE
13.01.2021 12:00:00 1,5 1,2 11 6 - - SE
13.01.2021 11:00:00 2,7 2,1 11 6 - - S
13.01.2021 10:00:00 2,1 1,6 13 7 - - S
13.01.2021 09:00:00 2,0 1,4 8 4 - - SSW
13.01.2021 08:00:00 2,2 -3,8 8 4 - - SSW
13.01.2021 07:00:00 1,9 -5,1 4 2 - - SSE
13.01.2021 06:00:00 1,1 -4,7 4 2 - - NNW
13.01.2021 05:00:00 0,7 -3,7 2 1 - - W
13.01.2021 04:00:00 1,0 -3,6 5 3 - - W
13.01.2021 03:00:00 1,1 -2,6 8 4 - - W
13.01.2021 02:00:00 -0,1 -2,4 5 3 - - W
13.01.2021 01:00:00 -1,4 -2,8 4 2 - - NW
13.01.2021 00:00:00 -1,0 -2,2 5 3 - - WNW
12.01.2021 23:00:00 -2,5 -3,2 4 2 - - WNW
12.01.2021 22:00:00 -4,0 -4,3 5 3 - - NNW
12.01.2021 21:00:00 -4,0 -4,4 5 3 - - N
12.01.2021 20:00:00 -4,2 -4,5 11 6 - - N
12.01.2021 19:00:00 -5,5 -5,8 5 3 - - NNW
12.01.2021 18:00:00 -5,5 -5,7 9 5 - - NW
12.01.2021 17:00:00 -5,6 -5,8 9 5 - - WNW
12.01.2021 16:00:00 -5,2 -5,4 11 6 - - WSW
12.01.2021 15:00:00 -5,1 -5,3 13 7 - - WSW
12.01.2021 14:00:00 -5,1 -5,2 9 5 - - NW
12.01.2021 13:00:00 -5,3 -5,4 5 3 - - WNW
12.01.2021 12:00:00 -5,4 -5,6 15 8 - - N
12.01.2021 11:00:00 -5,3 -5,6 21 11 - - N
12.01.2021 10:00:00 -5,2 -5,6 18 10 - - N
12.01.2021 09:00:00 -5,4 -5,8 24 13 - - N
12.01.2021 08:00:00 -5,4 -5,8 24 13 - - N
12.01.2021 07:00:00 -5,6 -6,0 28 15 - - N
12.01.2021 06:00:00 -5,6 -6,0 26 14 - - N
12.01.2021 05:00:00 -5,7 -6,1 28 15 - - N
12.01.2021 04:00:00 -5,6 -6,1 22 12 - - N
12.01.2021 03:00:00 -5,7 -6,1 22 12 - - N
12.01.2021 02:00:00 -6,0 -6,4 22 12 - - N
12.01.2021 01:00:00 -6,0 -6,4 22 12 - - N
12.01.2021 00:00:00 -6,5 -6,8 31 17 - - N
11.01.2021 23:00:00 -6,6 -6,9 28 15 - - NNE
11.01.2021 22:00:00 -6,7 -7,0 31 17 - - NE
11.01.2021 21:00:00 -6,0 -6,3 29 16 - - ENE
11.01.2021 20:00:00 -5,2 -5,2 28 15 - - ENE
11.01.2021 19:00:00 -3,2 -3,2 26 14 - - NNE
11.01.2021 18:00:00 -2,7 -2,7 28 15 - - N
11.01.2021 17:00:00 -0,7 -0,8 8 4 - - NW
11.01.2021 16:00:00 0,5 0,4 24 13 67 36 W
11.01.2021 15:00:00 1,9 1,7 50 27 85 46 WSW
11.01.2021 14:00:00 2,1 2,0 59 32 89 48 SW
11.01.2021 13:00:00 2,3 2,1 54 29 76 41 WSW
11.01.2021 12:00:00 2,5 2,4 57 31 81 44 SW
11.01.2021 11:00:00 2,7 2,6 61 33 94 51 WSW
11.01.2021 10:00:00 2,9 2,7 74 40 113 61 WSW
11.01.2021 09:00:00 2,3 2,2 57 31 115 62 WSW
11.01.2021 08:00:00 1,7 1,6 72 39 113 61 SW
11.01.2021 07:00:00 1,2 1,1 78 42 104 56 SW
11.01.2021 06:00:00 1,2 1,0 76 41 106 57 WSW
11.01.2021 05:00:00 0,5 0,4 83 45 109 59 WSW
11.01.2021 04:00:00 0,1 0,0 81 44 98 53 SW
11.01.2021 03:00:00 0,1 0,0 70 38 96 52 SW
11.01.2021 02:00:00 0,1 0,0 65 35 107 58 WSW
11.01.2021 01:00:00 0,0 -0,1 59 32 102 55 WSW
11.01.2021 00:00:00 0,1 -0,1 70 38 94 51 SW
10.01.2021 23:00:00 0,1 -0,1 46 25 102 55 SW
10.01.2021 22:00:00 0,1 0,0 65 35 111 60 SW
10.01.2021 21:00:00 0,1 0,0 65 35 93 50 SW
10.01.2021 20:00:00 0,1 -0,1 61 33 91 49 WSW
10.01.2021 19:00:00 0,1 0,0 67 36 98 53 WSW
10.01.2021 18:00:00 0,1 -0,1 67 36 102 55 WSW
10.01.2021 17:00:00 0,0 -0,2 61 33 81 44 WSW
10.01.2021 16:00:00 -0,4 -0,5 57 31 80 43 WSW
10.01.2021 15:00:00 -0,2 -0,2 54 29 68 37 WSW
10.01.2021 14:00:00 0,1 0,1 55 30 80 43 WSW
10.01.2021 13:00:00 0,0 0,0 52 28 81 44 WSW
10.01.2021 12:00:00 0,0 0,0 57 31 78 42 WSW
10.01.2021 11:00:00 -0,1 -0,1 48 26 76 41 SW
10.01.2021 10:00:00 -0,7 -0,7 37 20 59 32 SW
10.01.2021 09:00:00 -1,6 -1,6 35 19 54 29 SW
10.01.2021 08:00:00 -2,1 -2,1 29 16 50 27 WSW
10.01.2021 07:00:00 -2,7 -2,7 37 20 48 26 WSW
10.01.2021 06:00:00 -3,2 -3,2 34 18 - - WSW
10.01.2021 05:00:00 -3,4 -3,4 28 15 - - WSW
10.01.2021 04:00:00 -3,6 -3,6 18 10 - - WSW
10.01.2021 03:00:00 -3,5 -3,5 24 13 - - WSW
10.01.2021 02:00:00 -3,1 -3,1 16 9 - - W
10.01.2021 01:00:00 -2,4 -2,4 16 9 - - W
10.01.2021 00:00:00 -1,9 -1,9 21 11 94 51 WSW
09.01.2021 23:00:00 -1,0 -1,1 28 15 48 26 WSW
09.01.2021 22:00:00 -0,2 -0,4 35 19 52 28 WSW
09.01.2021 21:00:00 0,1 0,0 39 21 63 34 WSW
09.01.2021 20:00:00 0,1 0,0 44 24 74 40 WSW
09.01.2021 19:00:00 0,1 0,0 59 32 74 40 WSW
09.01.2021 18:00:00 0,1 0,0 57 31 85 46 SW

tt = temperature
td = dewpoint
ff = wind speed
fx = gusts
dd = wind direction

Next stations